Time;durP1;ratioP1;P1;durP2;ratioP2;P2;SDS_P1;SDS_P2;PMS_P1;PMS_P2;Temp;Humidity;BMP_temperature;BMP_pressure;BME280_temperature;BME280_humidity;BME280_pressure;Samples;Min_cycle;Max_cycle;Signal;HPM_P1;HPM_P2
2024/04/21 00:01:29;;;;;;;;;;;;;;;;;;5506172;26;4571;-67
2024/04/21 00:03:54;;;;;;;;;;;;;;;;;;5499443;26;4571;-67
2024/04/21 00:06:19;;;;;;;;;;;;;;;;;;5496199;26;5106;-67
2024/04/21 00:08:45;;;;;;;;;;;;;;;;;;5511553;26;1859;-67
2024/04/21 00:11:10;;;;;;;;;;;;;;;;;;5516493;26;5129;-67
2024/04/21 00:13:36;;;;;;;;;;;;;;;;;;5510004;26;5021;-67
2024/04/21 00:16:01;;;;;;;;;;;;;;;;;;5507918;26;5061;-67
2024/04/21 00:18:26;;;;;;;;;;;;;;;;;;5519705;26;4643;-67
2024/04/21 00:20:52;;;;;;;;;;;;;;;;;;5515436;26;5822;-67
2024/04/21 00:23:17;;;;;;;;;;;;;;;;;;5509540;25;1361;-67
2024/04/21 00:25:42;;;;;;;;;;;;;;;;;;5504964;26;5030;-68
2024/04/21 00:28:08;;;;;;;;;;;;;;;;;;5475272;26;5142;-68
2024/04/21 00:30:33;;;;;;;;;;;;;;;;;;5515972;26;5108;-67
2024/04/21 00:32:58;;;;;;;;;;;;;;;;;;5503715;26;4745;-67
2024/04/21 00:35:25;;;;;;;;;;;;;;;;;;5515985;26;1267;-67
2024/04/21 00:37:50;;;;;;;;;;;;;;;;;;5499175;26;5038;-67
2024/04/21 00:40:15;;;;;;;;;;;;;;;;;;5511442;26;4663;-67
2024/04/21 00:42:41;;;;;;;;;;;;;;;;;;5508962;26;5087;-67
2024/04/21 00:45:06;;;;;;;;;;;;;;;;;;5507261;26;5085;-67
2024/04/21 00:47:31;;;;;;;;;;;;;;;;;;5520947;26;1826;-66
2024/04/21 00:49:57;;;;;;;;;;;;;;;;;;5510493;26;5096;-67
2024/04/21 00:52:22;;;;;;;;;;;;;;;;;;5519615;26;5116;-67
2024/04/21 00:54:47;;;;;;;;;;;;;;;;;;5472260;26;5123;-67
2024/04/21 00:57:13;;;;;;;;;;;;;;;;;;5459352;26;5713;-67
2024/04/21 00:59:38;;;;;;;;;;;;;;;;;;5480876;26;1311;-67
2024/04/21 01:02:03;;;;;;;;;;;;;;;;;;5520478;26;4510;-67
2024/04/21 01:04:29;;;;;;;;;;;;;;;;;;5487770;26;5189;-67
2024/04/21 01:06:54;;;;;;;;;;;;;;;;;;5486919;26;5349;-67
2024/04/21 01:09:19;;;;;;;;;;;;;;;;;;5519856;26;5198;-67
2024/04/21 01:11:45;;;;;;;;;;;;;;;;;;5520494;26;1290;-67
2024/04/21 01:14:11;;;;;;;;;;;;;;;;;;5513766;25;5017;-67
2024/04/21 01:16:36;;;;;;;;;;;;;;;;;;5519718;26;5070;-67
2024/04/21 01:19:01;;;;;;;;;;;;;;;;;;5476158;26;4583;-66
2024/04/21 01:21:27;;;;;;;;;;;;;;;;;;5501707;26;6256;-67
2024/04/21 01:23:52;;;;;;;;;;;;;;;;;;5519744;25;5113;-67
2024/04/21 01:26:17;;;;;;;;;;;;;;;;;;5516755;26;1416;-67
2024/04/21 01:28:43;;;;;;;;;;;;;;;;;;5515565;26;5536;-68
2024/04/21 01:31:08;;;;;;;;;;;;;;;;;;5499871;26;5080;-67
2024/04/21 01:33:33;;;;;;;;;;;;;;;;;;5481385;26;4712;-67
2024/04/21 01:35:59;;;;;;;;;;;;;;;;;;5494738;26;5103;-67
2024/04/21 01:38:24;;;;;;;;;;;;;;;;;;5499663;26;1266;-67
2024/04/21 01:40:49;;;;;;;;;;;;;;;;;;5462409;26;5230;-68
2024/04/21 01:43:15;;;;;;;;;;;;;;;;;;5495471;26;5085;-68
2024/04/21 01:45:41;;;;;;;;;;;;;;;;;;5513969;26;5091;-67
2024/04/21 01:48:06;;;;;;;;;;;;;;;;;;5508914;26;4837;-67
2024/04/21 01:50:32;;;;;;;;;;;;;;;;;;5513680;26;1383;-67
2024/04/21 01:52:57;;;;;;;;;;;;;;;;;;5503481;26;5110;-67
2024/04/21 01:55:22;;;;;;;;;;;;;;;;;;5503779;26;4466;-66
2024/04/21 01:57:48;;;;;;;;;;;;;;;;;;5509416;26;5060;-67
2024/04/21 02:00:13;;;;;;;;;;;;;;;;;;5508306;26;5069;-67
2024/04/21 02:02:38;;;;;;;;;;;;;;;;;;5509960;26;3237;-68
2024/04/21 02:05:04;;;;;;;;;;;;;;;;;;5504107;26;5075;-68
2024/04/21 02:07:29;;;;;;;;;;;;;;;;;;5505464;26;5307;-67
2024/04/21 02:09:54;;;;;;;;;;;;;;;;;;5505416;26;4798;-67
2024/04/21 02:12:20;;;;;;;;;;;;;;;;;;5508885;26;5600;-67
2024/04/21 02:14:45;;;;;;;;;;;;;;;;;;5506006;26;1359;-67
2024/04/21 02:17:10;;;;;;;;;;;;;;;;;;5504740;26;4986;-68
2024/04/21 02:19:36;;;;;;;;;;;;;;;;;;5516643;26;4542;-67
2024/04/21 02:22:01;;;;;;;;;;;;;;;;;;5507600;26;5793;-68
2024/04/21 02:24:27;;;;;;;;;;;;;;;;;;5513882;25;5109;-67
2024/04/21 02:26:53;;;;;;;;;;;;;;;;;;5449066;26;5079;-67
2024/04/21 02:29:18;;;;;;;;;;;;;;;;;;5508836;26;2013;-67
2024/04/21 02:31:43;;;;;;;;;;;;;;;;;;5508281;26;4754;-67
2024/04/21 02:34:09;;;;;;;;;;;;;;;;;;5510983;26;5336;-67
2024/04/21 02:36:34;;;;;;;;;;;;;;;;;;5469954;26;5170;-67
2024/04/21 02:38:59;;;;;;;;;;;;;;;;;;5506908;26;5206;-67
2024/04/21 02:41:25;;;;;;;;;;;;;;;;;;5513965;26;1631;-67
2024/04/21 02:43:50;;;;;;;;;;;;;;;;;;5503818;26;5051;-68
2024/04/21 02:46:17;;;;;;;;;;;;;;;;;;5510414;26;4536;-68
2024/04/21 02:48:42;;;;;;;;;;;;;;;;;;5519400;26;5214;-67
2024/04/21 02:51:07;;;;;;;;;;;;;;;;;;5518434;26;5073;-67
2024/04/21 02:53:33;;;;;;;;;;;;;;;;;;5504823;26;1360;-67
2024/04/21 02:55:58;;;;;;;;;;;;;;;;;;5518577;26;5023;-67
2024/04/21 02:58:23;;;;;;;;;;;;;;;;;;5517530;26;5212;-68
2024/04/21 03:00:49;;;;;;;;;;;;;;;;;;5518589;26;5235;-67
2024/04/21 03:03:14;;;;;;;;;;;;;;;;;;5519298;26;4511;-66
2024/04/21 03:05:39;;;;;;;;;;;;;;;;;;5506697;26;1382;-67
2024/04/21 03:08:05;;;;;;;;;;;;;;;;;;5510055;26;5197;-67
2024/04/21 03:10:30;;;;;;;;;;;;;;;;;;5517717;26;5179;-67
2024/04/21 03:12:56;;;;;;;;;;;;;;;;;;5518933;26;5011;-68
2024/04/21 03:15:21;;;;;;;;;;;;;;;;;;5518054;26;5086;-67
2024/04/21 03:17:47;;;;;;;;;;;;;;;;;;5518673;26;1293;-67
2024/04/21 03:20:12;;;;;;;;;;;;;;;;;;5504882;26;5337;-68
2024/04/21 03:22:37;;;;;;;;;;;;;;;;;;5517230;25;4526;-68
2024/04/21 03:25:03;;;;;;;;;;;;;;;;;;5512951;26;5157;-67
2024/04/21 03:27:28;;;;;;;;;;;;;;;;;;5516347;26;5117;-67
2024/04/21 03:29:53;;;;;;;;;;;;;;;;;;5514209;26;5135;-66
2024/04/21 03:32:19;;;;;;;;;;;;;;;;;;5506271;26;1414;-68
2024/04/21 03:34:44;;;;;;;;;;;;;;;;;;5511355;26;5042;-67
2024/04/21 03:37:10;;;;;;;;;;;;;;;;;;5502139;26;4511;-67
2024/04/21 03:39:35;;;;;;;;;;;;;;;;;;5506085;26;4548;-67
2024/04/21 03:42:00;;;;;;;;;;;;;;;;;;5466361;26;5130;-66
2024/04/21 03:44:26;;;;;;;;;;;;;;;;;;5486823;26;1286;-67
2024/04/21 03:46:51;;;;;;;;;;;;;;;;;;5514502;26;5060;-67
2024/04/21 03:49:16;;;;;;;;;;;;;;;;;;5487398;26;5245;-67
2024/04/21 03:51:42;;;;;;;;;;;;;;;;;;5514863;26;4571;-67
2024/04/21 03:54:07;;;;;;;;;;;;;;;;;;5507944;25;5145;-67
2024/04/21 03:56:32;;;;;;;;;;;;;;;;;;5521722;26;3197;-67
2024/04/21 03:58:58;;;;;;;;;;;;;;;;;;5518999;26;4665;-68
2024/04/21 04:01:23;;;;;;;;;;;;;;;;;;5516843;26;5063;-67
2024/04/21 04:03:48;;;;;;;;;;;;;;;;;;5511165;26;5298;-67
2024/04/21 04:06:14;;;;;;;;;;;;;;;;;;5520766;25;5241;-67
2024/04/21 04:08:39;;;;;;;;;;;;;;;;;;5521155;26;1832;-67
2024/04/21 04:11:05;;;;;;;;;;;;;;;;;;5519118;26;5298;-67
2024/04/21 04:13:30;;;;;;;;;;;;;;;;;;5520036;26;5069;-66
2024/04/21 04:15:55;;;;;;;;;;;;;;;;;;5516769;26;5104;-66
2024/04/21 04:18:21;;;;;;;;;;;;;;;;;;5515050;26;4872;-69
2024/04/21 04:20:46;;;;;;;;;;;;;;;;;;5513733;26;1418;-67
2024/04/21 04:23:11;;;;;;;;;;;;;;;;;;5520588;25;5071;-68
2024/04/21 04:25:37;;;;;;;;;;;;;;;;;;5518394;26;5038;-67
2024/04/21 04:28:02;;;;;;;;;;;;;;;;;;5516329;26;5314;-67
2024/04/21 04:30:28;;;;;;;;;;;;;;;;;;5496314;26;5270;-67
2024/04/21 04:32:53;;;;;;;;;;;;;;;;;;5506332;26;5159;-67
2024/04/21 04:35:19;;;;;;;;;;;;;;;;;;5520367;26;1255;-66
2024/04/21 04:37:44;;;;;;;;;;;;;;;;;;5493205;25;5182;-66
2024/04/21 04:40:11;;;;;;;;;;;;;;;;;;5507679;26;4545;-67
2024/04/21 04:42:36;;;;;;;;;;;;;;;;;;5507778;26;4603;-66
2024/04/21 04:45:01;;;;;;;;;;;;;;;;;;5512835;26;5059;-66
2024/04/21 04:47:27;;;;;;;;;;;;;;;;;;5514013;26;1837;-68
2024/04/21 04:49:52;;;;;;;;;;;;;;;;;;5519434;26;4578;-67
2024/04/21 04:52:17;;;;;;;;;;;;;;;;;;5520247;25;5241;-67
2024/04/21 04:54:43;;;;;;;;;;;;;;;;;;5519083;26;5277;-68
2024/04/21 04:57:08;;;;;;;;;;;;;;;;;;5517079;26;5110;-67
2024/04/21 04:59:33;;;;;;;;;;;;;;;;;;5507922;26;1737;-67
2024/04/21 05:01:59;;;;;;;;;;;;;;;;;;5509132;26;5071;-67
2024/04/21 05:04:24;;;;;;;;;;;;;;;;;;5511035;26;5196;-66
2024/04/21 05:06:50;;;;;;;;;;;;;;;;;;5520029;26;5055;-67
2024/04/21 05:09:16;;;;;;;;;;;;;;;;;;5506587;26;4654;-67
2024/04/21 05:11:41;;;;;;;;;;;;;;;;;;5511070;26;1226;-67
2024/04/21 05:14:07;;;;;;;;;;;;;;;;;;5518181;26;5123;-66
2024/04/21 05:16:32;;;;;;;;;;;;;;;;;;5507093;26;5136;-67
2024/04/21 05:18:57;;;;;;;;;;;;;;;;;;5519338;26;4607;-67
2024/04/21 05:21:23;;;;;;;;;;;;;;;;;;5519809;26;5114;-67
2024/04/21 05:23:48;;;;;;;;;;;;;;;;;;5510990;25;1440;-67
2024/04/21 05:26:13;;;;;;;;;;;;;;;;;;5512945;26;5158;-67
2024/04/21 05:28:39;;;;;;;;;;;;;;;;;;5512476;26;5274;-68
2024/04/21 05:31:04;;;;;;;;;;;;;;;;;;5502372;26;4539;-67
2024/04/21 05:33:30;;;;;;;;;;;;;;;;;;5512336;26;5884;-67
2024/04/21 05:35:55;;;;;;;;;;;;;;;;;;5509895;26;5050;-67
2024/04/21 05:38:21;;;;;;;;;;;;;;;;;;5513196;26;1261;-67
2024/04/21 05:40:46;;;;;;;;;;;;;;;;;;5499659;26;5128;-67
2024/04/21 05:43:11;;;;;;;;;;;;;;;;;;5515886;26;5098;-68
2024/04/21 05:45:37;;;;;;;;;;;;;;;;;;5480180;26;5350;-66
2024/04/21 05:48:02;;;;;;;;;;;;;;;;;;5518127;26;4748;-66
2024/04/21 05:50:27;;;;;;;;;;;;;;;;;;5519998;26;1399;-67
2024/04/21 05:52:53;;;;;;;;;;;;;;;;;;5515185;26;5226;-67
2024/04/21 05:55:18;;;;;;;;;;;;;;;;;;5518698;26;4602;-67
2024/04/21 05:57:44;;;;;;;;;;;;;;;;;;5517018;26;5084;-68
2024/04/21 06:00:09;;;;;;;;;;;;;;;;;;5509614;26;5176;-67
2024/04/21 06:02:34;;;;;;;;;;;;;;;;;;5507157;26;1405;-66
2024/04/21 06:05:01;;;;;;;;;;;;;;;;;;5473764;26;4587;-67
2024/04/21 06:07:26;;;;;;;;;;;;;;;;;;5509514;26;5110;-67
2024/04/21 06:09:52;;;;;;;;;;;;;;;;;;5496597;26;4658;-67
2024/04/21 06:12:17;;;;;;;;;;;;;;;;;;5507645;26;4496;-67
2024/04/21 06:14:42;;;;;;;;;;;;;;;;;;5507868;26;1368;-67
2024/04/21 06:17:08;;;;;;;;;;;;;;;;;;5507965;26;5161;-66
2024/04/21 06:19:33;;;;;;;;;;;;;;;;;;5518970;26;5925;-67
2024/04/21 06:21:59;;;;;;;;;;;;;;;;;;5511812;26;5301;-67
2024/04/21 06:24:24;;;;;;;;;;;;;;;;;;5495252;25;4685;-67
2024/04/21 06:26:50;;;;;;;;;;;;;;;;;;5514950;26;1833;-67
2024/04/21 06:29:15;;;;;;;;;;;;;;;;;;5511610;26;4463;-69
2024/04/21 06:31:41;;;;;;;;;;;;;;;;;;5503617;26;4680;-67
2024/04/21 06:34:06;;;;;;;;;;;;;;;;;;5508317;26;4929;-67
2024/04/21 06:36:31;;;;;;;;;;;;;;;;;;5463659;26;5096;-67
2024/04/21 06:38:57;;;;;;;;;;;;;;;;;;5497305;26;5252;-67
2024/04/21 06:41:22;;;;;;;;;;;;;;;;;;5466093;26;1438;-67
2024/04/21 06:43:47;;;;;;;;;;;;;;;;;;5503170;26;5073;-68
2024/04/21 06:46:13;;;;;;;;;;;;;;;;;;5514710;26;5100;-67
2024/04/21 06:48:38;;;;;;;;;;;;;;;;;;5518569;26;4733;-67
2024/04/21 06:51:03;;;;;;;;;;;;;;;;;;5502826;26;5073;-68
2024/04/21 06:53:32;;;;;;;;;;;;;;;;;;5518942;26;1363;-67
2024/04/21 06:55:57;;;;;;;;;;;;;;;;;;5517831;26;5101;-67
2024/04/21 06:58:22;;;;;;;;;;;;;;;;;;5516162;26;5147;-68
2024/04/21 07:00:49;;;;;;;;;;;;;;;;;;5505847;26;5138;-68
2024/04/21 07:03:14;;;;;;;;;;;;;;;;;;5512916;26;6403;-67
2024/04/21 07:05:40;;;;;;;;;;;;;;;;;;5503627;26;1475;-67
2024/04/21 07:08:05;;;;;;;;;;;;;;;;;;5505860;26;4484;-67
2024/04/21 07:10:31;;;;;;;;;;;;;;;;;;5511327;26;5217;-67
2024/04/21 07:12:56;;;;;;;;;;;;;;;;;;5505538;26;5089;-67
2024/04/21 07:15:21;;;;;;;;;;;;;;;;;;5514742;26;5261;-68
2024/04/21 07:17:47;;;;;;;;;;;;;;;;;;5505100;26;1329;-67
2024/04/21 07:20:13;;;;;;;;;;;;;;;;;;5475204;26;5194;-67
2024/04/21 07:22:38;;;;;;;;;;;;;;;;;;5504929;25;5108;-67
2024/04/21 07:25:06;;;;;;;;;;;;;;;;;;5505131;26;5205;-68
2024/04/21 07:27:32;;;;;;;;;;;;;;;;;;5481453;26;5563;-67
2024/04/21 07:29:57;;;;;;;;;;;;;;;;;;5503853;26;4693;-67
2024/04/21 07:32:23;;;;;;;;;;;;;;;;;;5517231;26;1368;-67
2024/04/21 07:34:48;;;;;;;;;;;;;;;;;;5501702;26;5195;-67
2024/04/21 07:37:13;;;;;;;;;;;;;;;;;;5512329;26;4672;-67
2024/04/21 07:39:39;;;;;;;;;;;;;;;;;;5506332;26;4622;-67
2024/04/21 07:42:04;;;;;;;;;;;;;;;;;;5518864;26;5009;-67
2024/04/21 07:44:29;;;;;;;;;;;;;;;;;;5501252;26;1254;-67
2024/04/21 07:46:55;;;;;;;;;;;;;;;;;;5515321;26;4519;-66
2024/04/21 07:49:20;;;;;;;;;;;;;;;;;;5518069;26;5167;-67
2024/04/21 07:51:46;;;;;;;;;;;;;;;;;;5521143;26;5146;-68
2024/04/21 07:54:11;;;;;;;;;;;;;;;;;;5478519;26;5292;-67
2024/04/21 07:56:36;;;;;;;;;;;;;;;;;;5521008;26;1249;-66
2024/04/21 07:59:02;;;;;;;;;;;;;;;;;;5511692;26;4458;-66
2024/04/21 08:01:27;;;;;;;;;;;;;;;;;;5508162;26;5107;-66
2024/04/21 08:03:52;;;;;;;;;;;;;;;;;;5520949;26;5911;-66
2024/04/21 08:06:18;;;;;;;;;;;;;;;;;;5502538;26;4576;-68
2024/04/21 08:08:46;;;;;;;;;;;;;;;;;;5515337;26;1851;-68
2024/04/21 08:11:11;;;;;;;;;;;;;;;;;;5507034;26;5019;-66
2024/04/21 08:13:36;;;;;;;;;;;;;;;;;;5514857;26;5137;-66
2024/04/21 08:16:03;;;;;;;;;;;;;;;;;;5493177;26;5287;-66
2024/04/21 08:18:28;;;;;;;;;;;;;;;;;;5520332;25;5108;-66
2024/04/21 08:20:54;;;;;;;;;;;;;;;;;;5520455;26;4516;-66
2024/04/21 08:23:20;;;;;;;;;;;;;;;;;;5520653;25;1401;-66
2024/04/21 08:25:45;;;;;;;;;;;;;;;;;;5517367;26;5088;-66
2024/04/21 08:28:11;;;;;;;;;;;;;;;;;;5512128;26;5040;-66
2024/04/21 08:30:36;;;;;;;;;;;;;;;;;;5505793;26;4692;-66
2024/04/21 08:33:01;;;;;;;;;;;;;;;;;;5519904;26;5236;-68
2024/04/21 08:35:27;;;;;;;;;;;;;;;;;;5519584;26;1405;-66
2024/04/21 08:37:52;;;;;;;;;;;;;;;;;;5468347;26;5165;-68
2024/04/21 08:40:18;;;;;;;;;;;;;;;;;;5520022;26;5214;-68
2024/04/21 08:42:43;;;;;;;;;;;;;;;;;;5505677;26;5075;-68
2024/04/21 08:45:08;;;;;;;;;;;;;;;;;;5467593;26;4660;-68
2024/04/21 08:47:34;;;;;;;;;;;;;;;;;;5511073;26;1836;-68
2024/04/21 08:50:00;;;;;;;;;;;;;;;;;;5513063;26;5302;-69
2024/04/21 08:52:26;;;;;;;;;;;;;;;;;;5520236;26;5057;-70
2024/04/21 08:54:51;;;;;;;;;;;;;;;;;;5484163;26;5126;-68
2024/04/21 08:57:17;;;;;;;;;;;;;;;;;;5514111;26;4526;-68
2024/04/21 08:59:43;;;;;;;;;;;;;;;;;;5513803;26;1969;-68
2024/04/21 09:02:09;;;;;;;;;;;;;;;;;;5481631;26;4502;-68
2024/04/21 09:04:34;;;;;;;;;;;;;;;;;;5513081;26;5262;-68
2024/04/21 09:06:59;;;;;;;;;;;;;;;;;;5504118;26;5160;-68
2024/04/21 09:09:25;;;;;;;;;;;;;;;;;;5512344;26;5026;-68
2024/04/21 09:11:50;;;;;;;;;;;;;;;;;;5466192;26;1420;-68
2024/04/21 09:14:15;;;;;;;;;;;;;;;;;;5517833;26;5377;-70
2024/04/21 09:16:41;;;;;;;;;;;;;;;;;;5520465;26;4734;-68
2024/04/21 09:19:06;;;;;;;;;;;;;;;;;;5503902;26;5579;-68
2024/04/21 09:21:32;;;;;;;;;;;;;;;;;;5511232;26;5069;-68
2024/04/21 09:23:57;;;;;;;;;;;;;;;;;;5503981;26;5279;-68
2024/04/21 09:26:22;;;;;;;;;;;;;;;;;;5514777;26;1420;-69
2024/04/21 09:28:49;;;;;;;;;;;;;;;;;;5517566;26;4740;-69
2024/04/21 09:31:14;;;;;;;;;;;;;;;;;;5517959;26;4508;-68
2024/04/21 09:33:39;;;;;;;;;;;;;;;;;;5518316;26;5285;-69
2024/04/21 09:36:05;;;;;;;;;;;;;;;;;;5471368;26;5290;-68
2024/04/21 09:38:31;;;;;;;;;;;;;;;;;;5520244;26;1308;-68
2024/04/21 09:40:57;;;;;;;;;;;;;;;;;;5510774;26;5183;-68
2024/04/21 09:43:22;;;;;;;;;;;;;;;;;;5511931;26;5273;-67
2024/04/21 09:45:50;;;;;;;;;;;;;;;;;;5509590;26;4638;-68
2024/04/21 09:48:17;;;;;;;;;;;;;;;;;;5519012;26;5107;-67
2024/04/21 09:50:43;;;;;;;;;;;;;;;;;;5497541;26;1379;-67
2024/04/21 09:53:08;;;;;;;;;;;;;;;;;;5470961;26;4563;-68
2024/04/21 09:55:36;;;;;;;;;;;;;;;;;;5482364;26;5099;-68
2024/04/21 09:58:02;;;;;;;;;;;;;;;;;;5479876;26;4576;-69
2024/04/21 10:00:29;;;;;;;;;;;;;;;;;;5512421;26;4503;-67
2024/04/21 10:02:54;;;;;;;;;;;;;;;;;;5505427;26;5441;-67
2024/04/21 10:05:20;;;;;;;;;;;;;;;;;;5479707;26;1553;-69
2024/04/21 10:07:46;;;;;;;;;;;;;;;;;;5451624;26;5181;-68
2024/04/21 10:10:12;;;;;;;;;;;;;;;;;;5505275;26;5173;-67
2024/04/21 10:12:38;;;;;;;;;;;;;;;;;;5509363;26;5256;-70
2024/04/21 10:15:06;;;;;;;;;;;;;;;;;;5475933;26;5018;-67
2024/04/21 10:17:32;;;;;;;;;;;;;;;;;;5486765;26;1262;-67
2024/04/21 10:20:01;;;;;;;;;;;;;;;;;;5501969;26;6299;-67
2024/04/21 10:22:27;;;;;;;;;;;;;;;;;;5496261;25;5122;-67
2024/04/21 10:24:52;;;;;;;;;;;;;;;;;;5515934;26;5157;-67
2024/04/21 10:27:21;;;;;;;;;;;;;;;;;;5518000;26;5116;-67
2024/04/21 10:29:46;;;;;;;;;;;;;;;;;;5506681;26;3306;-70
2024/04/21 10:32:15;;;;;;;;;;;;;;;;;;5513477;26;4469;-68
2024/04/21 10:34:47;;;;;;;;;;;;;;;;;;5499424;26;5071;-68
2024/04/21 10:37:12;;;;;;;;;;;;;;;;;;5503983;26;5227;-67
2024/04/21 10:39:38;;;;;;;;;;;;;;;;;;5507322;26;5086;-67
2024/04/21 10:42:03;;;;;;;;;;;;;;;;;;5479028;26;4714;-69
2024/04/21 10:44:29;;;;;;;;;;;;;;;;;;5459797;26;1530;-68
2024/04/21 10:46:54;;;;;;;;;;;;;;;;;;5472826;26;4621;-68
2024/04/21 10:49:19;;;;;;;;;;;;;;;;;;5508278;26;5089;-67
2024/04/21 10:51:45;;;;;;;;;;;;;;;;;;5483574;26;5318;-68
2024/04/21 10:54:12;;;;;;;;;;;;;;;;;;5517363;26;5078;-67
2024/04/21 10:56:37;;;;;;;;;;;;;;;;;;5477770;26;1237;-67
2024/04/21 10:59:05;;;;;;;;;;;;;;;;;;5508835;26;4671;-67
2024/04/21 11:01:30;;;;;;;;;;;;;;;;;;5513153;26;4570;-66
2024/04/21 11:03:55;;;;;;;;;;;;;;;;;;5503745;26;5202;-67
2024/04/21 11:06:21;;;;;;;;;;;;;;;;;;5502727;26;4546;-67
2024/04/21 11:08:47;;;;;;;;;;;;;;;;;;5508319;26;1847;-68
2024/04/21 11:11:16;;;;;;;;;;;;;;;;;;5468317;26;5356;-68
2024/04/21 11:13:41;;;;;;;;;;;;;;;;;;5504789;26;4483;-67
2024/04/21 11:16:11;;;;;;;;;;;;;;;;;;5505860;26;5144;-68
2024/04/21 11:18:36;;;;;;;;;;;;;;;;;;5500804;26;5168;-67
2024/04/21 11:21:02;;;;;;;;;;;;;;;;;;5469607;26;5151;-67
2024/04/21 11:23:27;;;;;;;;;;;;;;;;;;5504851;26;1400;-67
2024/04/21 11:25:52;;;;;;;;;;;;;;;;;;5461292;26;5324;-67
2024/04/21 11:28:19;;;;;;;;;;;;;;;;;;5482527;26;4563;-67
2024/04/21 11:30:44;;;;;;;;;;;;;;;;;;5517479;26;4718;-68
2024/04/21 11:33:10;;;;;;;;;;;;;;;;;;5454779;26;4686;-68
2024/04/21 11:35:36;;;;;;;;;;;;;;;;;;5517984;26;1391;-67
2024/04/21 11:38:01;;;;;;;;;;;;;;;;;;5469614;26;5143;-67
2024/04/21 11:40:27;;;;;;;;;;;;;;;;;;5516926;26;5277;-67
2024/04/21 11:42:52;;;;;;;;;;;;;;;;;;5478598;26;5082;-67
2024/04/21 11:45:27;;;;;;;;;;;;;;;;;;5505000;26;5087;-68
2024/04/21 11:47:54;;;;;;;;;;;;;;;;;;5508266;26;5026;-67
2024/04/21 11:50:20;;;;;;;;;;;;;;;;;;5511710;26;1285;-68
2024/04/21 11:52:45;;;;;;;;;;;;;;;;;;5477278;26;5265;-68
2024/04/21 11:55:11;;;;;;;;;;;;;;;;;;5517220;26;4547;-67
2024/04/21 11:57:36;;;;;;;;;;;;;;;;;;5516682;26;5171;-67
2024/04/21 12:00:02;;;;;;;;;;;;;;;;;;5516343;26;4821;-67
2024/04/21 12:02:27;;;;;;;;;;;;;;;;;;5516794;26;1473;-67
2024/04/21 12:04:53;;;;;;;;;;;;;;;;;;5504341;26;5174;-68
2024/04/21 12:07:22;;;;;;;;;;;;;;;;;;5516873;26;5214;-67
2024/04/21 12:09:47;;;;;;;;;;;;;;;;;;5505544;26;5127;-68
2024/04/21 12:12:13;;;;;;;;;;;;;;;;;;5518163;26;5126;-69
2024/04/21 12:14:38;;;;;;;;;;;;;;;;;;5498801;26;1205;-67
2024/04/21 12:17:04;;;;;;;;;;;;;;;;;;5485034;26;5179;-69
2024/04/21 12:19:31;;;;;;;;;;;;;;;;;;5508487;26;5145;-67
2024/04/21 12:21:56;;;;;;;;;;;;;;;;;;5512360;26;5261;-68
2024/04/21 12:24:22;;;;;;;;;;;;;;;;;;5506476;26;5147;-67
2024/04/21 12:26:47;;;;;;;;;;;;;;;;;;5504077;26;1297;-68
2024/04/21 12:29:13;;;;;;;;;;;;;;;;;;5503595;26;5177;-68
2024/04/21 12:31:38;;;;;;;;;;;;;;;;;;5519975;26;5255;-67
2024/04/21 12:34:03;;;;;;;;;;;;;;;;;;5457525;26;6190;-67
2024/04/21 12:36:29;;;;;;;;;;;;;;;;;;5510336;26;5095;-68
2024/04/21 12:38:54;;;;;;;;;;;;;;;;;;5476461;26;5089;-67
2024/04/21 12:41:19;;;;;;;;;;;;;;;;;;5512247;26;1514;-67
2024/04/21 12:43:45;;;;;;;;;;;;;;;;;;5506175;26;5256;-67
2024/04/21 12:46:10;;;;;;;;;;;;;;;;;;5520822;25;4543;-68
2024/04/21 12:48:35;;;;;;;;;;;;;;;;;;5505004;26;5120;-68
2024/04/21 12:51:01;;;;;;;;;;;;;;;;;;5509889;26;5239;-67
2024/04/21 12:53:26;;;;;;;;;;;;;;;;;;5505472;26;1249;-67
2024/04/21 12:55:51;;;;;;;;;;;;;;;;;;5465658;26;5177;-68
2024/04/21 12:58:17;;;;;;;;;;;;;;;;;;5511998;26;5089;-69
2024/04/21 13:00:42;;;;;;;;;;;;;;;;;;5504996;26;4695;-67
2024/04/21 13:03:07;;;;;;;;;;;;;;;;;;5508088;26;4567;-67
2024/04/21 13:05:33;;;;;;;;;;;;;;;;;;5520594;25;1383;-67
2024/04/21 13:07:58;;;;;;;;;;;;;;;;;;5512392;26;5168;-67
2024/04/21 13:10:24;;;;;;;;;;;;;;;;;;5505915;26;5152;-68
2024/04/21 13:12:49;;;;;;;;;;;;;;;;;;5509841;26;5071;-68
2024/04/21 13:15:15;;;;;;;;;;;;;;;;;;5475985;26;5104;-68
2024/04/21 13:17:44;;;;;;;;;;;;;;;;;;5516909;26;2444;-68
2024/04/21 13:20:10;;;;;;;;;;;;;;;;;;5505193;26;4990;-67
2024/04/21 13:22:35;;;;;;;;;;;;;;;;;;5509637;26;5188;-67
2024/04/21 13:25:00;;;;;;;;;;;;;;;;;;5508968;26;5165;-67
2024/04/21 13:27:26;;;;;;;;;;;;;;;;;;5499980;26;4533;-68
2024/04/21 13:29:51;;;;;;;;;;;;;;;;;;5514865;26;4679;-68
2024/04/21 13:32:17;;;;;;;;;;;;;;;;;;5519664;26;1346;-68
2024/04/21 13:34:42;;;;;;;;;;;;;;;;;;5504301;26;5186;-68
2024/04/21 13:37:07;;;;;;;;;;;;;;;;;;5517975;26;5071;-68
2024/04/21 13:39:33;;;;;;;;;;;;;;;;;;5512114;26;5124;-67
2024/04/21 13:41:58;;;;;;;;;;;;;;;;;;5504865;26;5272;-68
2024/04/21 13:44:23;;;;;;;;;;;;;;;;;;5521728;25;1296;-68
2024/04/21 13:46:49;;;;;;;;;;;;;;;;;;5519677;25;4630;-67
2024/04/21 13:49:14;;;;;;;;;;;;;;;;;;5462624;26;4675;-67
2024/04/21 13:51:40;;;;;;;;;;;;;;;;;;5518586;26;5686;-68
2024/04/21 13:54:05;;;;;;;;;;;;;;;;;;5512713;26;5203;-68
2024/04/21 13:56:30;;;;;;;;;;;;;;;;;;5519485;25;1193;-67
2024/04/21 13:58:56;;;;;;;;;;;;;;;;;;5512016;26;5000;-67
2024/04/21 14:01:21;;;;;;;;;;;;;;;;;;5514717;26;4561;-68
2024/04/21 14:03:46;;;;;;;;;;;;;;;;;;5460443;26;4624;-70
2024/04/21 14:06:12;;;;;;;;;;;;;;;;;;5501049;26;5102;-68
2024/04/21 14:08:37;;;;;;;;;;;;;;;;;;5492600;26;1829;-67
2024/04/21 14:11:02;;;;;;;;;;;;;;;;;;5513809;26;4649;-68
2024/04/21 14:13:28;;;;;;;;;;;;;;;;;;5503167;26;5138;-68
2024/04/21 14:15:53;;;;;;;;;;;;;;;;;;5512793;26;4671;-67
2024/04/21 14:18:19;;;;;;;;;;;;;;;;;;5512642;26;5177;-67
2024/04/21 14:20:44;;;;;;;;;;;;;;;;;;5505124;26;1275;-68
2024/04/21 14:23:10;;;;;;;;;;;;;;;;;;5511183;25;4417;-67
2024/04/21 14:25:35;;;;;;;;;;;;;;;;;;5478970;26;5260;-67
2024/04/21 14:28:00;;;;;;;;;;;;;;;;;;5515885;26;5029;-67
2024/04/21 14:30:26;;;;;;;;;;;;;;;;;;5514793;26;5102;-68
2024/04/21 14:32:51;;;;;;;;;;;;;;;;;;5517776;26;5063;-67
2024/04/21 14:35:16;;;;;;;;;;;;;;;;;;5498848;26;1274;-68
2024/04/21 14:37:42;;;;;;;;;;;;;;;;;;5518153;26;4688;-68
2024/04/21 14:40:07;;;;;;;;;;;;;;;;;;5518131;26;5275;-68
2024/04/21 14:42:33;;;;;;;;;;;;;;;;;;5510023;26;5081;-68
2024/04/21 14:45:03;;;;;;;;;;;;;;;;;;5519974;25;4593;-68
2024/04/21 14:47:32;;;;;;;;;;;;;;;;;;5495365;26;1836;-68
2024/04/21 14:49:57;;;;;;;;;;;;;;;;;;5503771;26;5134;-67
2024/04/21 14:52:23;;;;;;;;;;;;;;;;;;5518276;26;5871;-68
2024/04/21 14:54:50;;;;;;;;;;;;;;;;;;5484566;26;5724;-67
2024/04/21 14:57:15;;;;;;;;;;;;;;;;;;5485072;26;4555;-67
2024/04/21 14:59:40;;;;;;;;;;;;;;;;;;5477653;26;1924;-67
2024/04/21 15:02:06;;;;;;;;;;;;;;;;;;5500997;26;4953;-67
2024/04/21 15:04:31;;;;;;;;;;;;;;;;;;5514732;26;4857;-67
2024/04/21 15:06:56;;;;;;;;;;;;;;;;;;5510223;26;5792;-68
2024/04/21 15:09:22;;;;;;;;;;;;;;;;;;5493523;26;5213;-67
2024/04/21 15:11:47;;;;;;;;;;;;;;;;;;5517516;26;1400;-69
2024/04/21 15:14:13;;;;;;;;;;;;;;;;;;5513642;26;5058;-69
2024/04/21 15:16:38;;;;;;;;;;;;;;;;;;5502911;26;5478;-68
2024/04/21 15:19:03;;;;;;;;;;;;;;;;;;5505657;26;4554;-68
2024/04/21 15:21:29;;;;;;;;;;;;;;;;;;5509006;26;4510;-67
2024/04/21 15:23:54;;;;;;;;;;;;;;;;;;5506774;26;5110;-68
2024/04/21 15:26:19;;;;;;;;;;;;;;;;;;5507928;26;1418;-67
2024/04/21 15:28:45;;;;;;;;;;;;;;;;;;5502808;26;4565;-68
2024/04/21 15:31:11;;;;;;;;;;;;;;;;;;5501648;26;4514;-69
2024/04/21 15:33:37;;;;;;;;;;;;;;;;;;5510847;26;4817;-66
2024/04/21 15:36:02;;;;;;;;;;;;;;;;;;5517203;25;5238;-65
2024/04/21 15:38:27;;;;;;;;;;;;;;;;;;5517639;26;1163;-67
2024/04/21 15:40:53;;;;;;;;;;;;;;;;;;5515145;26;5252;-68
2024/04/21 15:43:18;;;;;;;;;;;;;;;;;;5505210;26;5216;-68
2024/04/21 15:45:43;;;;;;;;;;;;;;;;;;5521293;25;5086;-67
2024/04/21 15:48:09;;;;;;;;;;;;;;;;;;5510848;26;4565;-67
2024/04/21 15:50:36;;;;;;;;;;;;;;;;;;5521452;26;1242;-67
2024/04/21 15:53:02;;;;;;;;;;;;;;;;;;5520818;26;5147;-68
2024/04/21 15:55:27;;;;;;;;;;;;;;;;;;5520404;26;5081;-67
2024/04/21 15:57:52;;;;;;;;;;;;;;;;;;5513242;26;5122;-69
2024/04/21 16:00:18;;;;;;;;;;;;;;;;;;5464845;26;5121;-68
2024/04/21 16:02:44;;;;;;;;;;;;;;;;;;5519151;26;1536;-68
2024/04/21 16:05:09;;;;;;;;;;;;;;;;;;5517452;26;5074;-67
2024/04/21 16:07:34;;;;;;;;;;;;;;;;;;5509969;26;5568;-67
2024/04/21 16:10:01;;;;;;;;;;;;;;;;;;5517118;26;5279;-68
2024/04/21 16:12:26;;;;;;;;;;;;;;;;;;5520037;26;5195;-68
2024/04/21 16:14:51;;;;;;;;;;;;;;;;;;5514667;26;5048;-68
2024/04/21 16:17:18;;;;;;;;;;;;;;;;;;5498519;26;3323;-62
2024/04/21 16:19:44;;;;;;;;;;;;;;;;;;5489390;26;5156;-66
2024/04/21 16:22:09;;;;;;;;;;;;;;;;;;5506189;25;5148;-66
2024/04/21 16:24:34;;;;;;;;;;;;;;;;;;5510369;25;4536;-66
2024/04/21 16:27:00;;;;;;;;;;;;;;;;;;5508923;26;5042;-66
2024/04/21 16:29:25;;;;;;;;;;;;;;;;;;5497861;26;3460;-67
2024/04/21 16:31:50;;;;;;;;;;;;;;;;;;5506320;25;5179;-68
2024/04/21 16:34:16;;;;;;;;;;;;;;;;;;5507814;25;5184;-61
2024/04/21 16:36:41;;;;;;;;;;;;;;;;;;5514416;25;5797;-58
2024/04/21 16:39:07;;;;;;;;;;;;;;;;;;5501755;26;4661;-59
2024/04/21 16:41:32;;;;;;;;;;;;;;;;;;5509157;25;3375;-57
2024/04/21 16:43:58;;;;;;;;;;;;;;;;;;5510510;25;4664;-58
2024/04/21 16:46:23;;;;;;;;;;;;;;;;;;5510506;25;5102;-67
2024/04/21 16:48:53;;;;;;;;;;;;;;;;;;5471297;26;5166;-60
2024/04/21 16:51:19;;;;;;;;;;;;;;;;;;5471655;26;5089;-60